Time;durP1;ratioP1;P1;durP2;ratioP2;P2;SDS_P1;SDS_P2;PMS_P1;PMS_P2;Temp;Humidity;BMP_temperature;BMP_pressure;BME280_temperature;BME280_humidity;BME280_pressure;Samples;Min_cycle;Max_cycle;Signal;HPM_P1;HPM_P2
2021/07/18 00:00:45;;;;;;;24.15;18.13;;;;;;;;;;5092851;28;20019;-64
2021/07/18 00:03:11;;;;;;;26.98;17.30;;;;;;;;;;5093394;28;20016;-66
2021/07/18 00:05:37;;;;;;;26.73;16.02;;;;;;;;;;5093116;28;20063;-66
2021/07/18 00:08:06;;;;;;;22.65;16.30;;;;;;;;;;5093112;28;20073;-66
2021/07/18 00:10:32;;;;;;;24.10;15.75;;;;;;;;;;5092979;28;20019;-67
2021/07/18 00:12:58;;;;;;;22.88;14.52;;;;;;;;;;5092480;28;20046;-65
2021/07/18 00:15:24;;;;;;;23.95;13.65;;;;;;;;;;5093044;28;20020;-67
2021/07/18 00:17:50;;;;;;;19.15;12.02;;;;;;;;;;5092875;28;20016;-67
2021/07/18 00:20:17;;;;;;;18.73;12.82;;;;;;;;;;5093151;28;20475;-67
2021/07/18 00:22:42;;;;;;;15.93;11.50;;;;;;;;;;5094247;28;20030;-66
2021/07/18 00:25:09;;;;;;;19.67;11.45;;;;;;;;;;5092428;28;20095;-65
2021/07/18 00:27:35;;;;;;;14.63;11.50;;;;;;;;;;5092646;28;20024;-65
2021/07/18 00:30:01;;;;;;;14.85;11.20;;;;;;;;;;5092567;28;20032;-66
2021/07/18 00:32:27;;;;;;;17.80;11.32;;;;;;;;;;5095307;28;20012;-66
2021/07/18 00:34:52;;;;;;;17.00;11.65;;;;;;;;;;5096658;28;20081;-66
2021/07/18 00:37:18;;;;;;;20.08;12.90;;;;;;;;;;5097013;28;20038;-67
2021/07/18 00:39:45;;;;;;;17.35;12.52;;;;;;;;;;5096899;28;20073;-67
2021/07/18 00:42:16;;;;;;;25.70;12.63;;;;;;;;;;5096626;28;20070;-66
2021/07/18 00:44:42;;;;;;;23.40;12.52;;;;;;;;;;5096791;28;20106;-65
2021/07/18 00:47:07;;;;;;;20.77;12.45;;;;;;;;;;5096319;28;20370;-66
2021/07/18 00:49:34;;;;;;;18.83;12.15;;;;;;;;;;5096683;28;20024;-67
2021/07/18 00:52:00;;;;;;;19.45;12.23;;;;;;;;;;5096555;28;20019;-65
2021/07/18 00:54:26;;;;;;;24.38;12.38;;;;;;;;;;5096799;28;20115;-65
2021/07/18 00:56:52;;;;;;;16.75;11.38;;;;;;;;;;5096129;28;20060;-63
2021/07/18 00:59:18;;;;;;;15.60;11.73;;;;;;;;;;5096747;28;20492;-65
2021/07/18 01:01:44;;;;;;;17.70;12.00;;;;;;;;;;5096479;28;20024;-67
2021/07/18 01:04:10;;;;;;;17.67;12.27;;;;;;;;;;5096593;28;20020;-67
2021/07/18 01:06:36;;;;;;;17.63;12.27;;;;;;;;;;5078299;28;20032;-66
2021/07/18 01:09:02;;;;;;;20.05;12.13;;;;;;;;;;5095950;28;20052;-65
2021/07/18 01:11:28;;;;;;;14.85;11.73;;;;;;;;;;5096054;28;20020;-67
2021/07/18 01:13:55;;;;;;;16.98;11.35;;;;;;;;;;5096257;28;20016;-66
2021/07/18 01:16:21;;;;;;;18.42;10.82;;;;;;;;;;5096145;28;20048;-66
2021/07/18 01:18:46;;;;;;;16.27;11.50;;;;;;;;;;5095897;28;20062;-67
2021/07/18 01:21:12;;;;;;;19.17;11.30;;;;;;;;;;5096304;28;20024;-65
2021/07/18 01:23:40;;;;;;;20.08;11.07;;;;;;;;;;5096120;28;20020;-65
2021/07/18 01:26:06;;;;;;;16.02;10.45;;;;;;;;;;5095529;28;20488;-66
2021/07/18 01:28:32;;;;;;;16.40;11.40;;;;;;;;;;5096092;28;20388;-66
2021/07/18 01:30:58;;;;;;;13.35;9.93;;;;;;;;;;5095550;28;20020;-67
2021/07/18 01:33:24;;;;;;;18.95;9.95;;;;;;;;;;5096034;28;20035;-66
2021/07/18 01:35:50;;;;;;;16.67;8.52;;;;;;;;;;5095929;28;20028;-66
2021/07/18 01:38:17;;;;;;;11.02;7.15;;;;;;;;;;5095586;28;20020;-62
2021/07/18 01:40:43;;;;;;;9.88;7.15;;;;;;;;;;5095551;28;20047;-67
2021/07/18 01:43:08;;;;;;;14.02;7.40;;;;;;;;;;5095058;28;20400;-67
2021/07/18 01:45:34;;;;;;;9.50;5.97;;;;;;;;;;5095405;28;20024;-65
2021/07/18 01:48:00;;;;;;;7.65;6.57;;;;;;;;;;5095732;28;20122;-66
2021/07/18 01:50:27;;;;;;;12.20;5.97;;;;;;;;;;5095633;28;20093;-66
2021/07/18 01:52:53;;;;;;;9.40;5.30;;;;;;;;;;5095034;28;20015;-66
2021/07/18 01:55:19;;;;;;;7.40;5.68;;;;;;;;;;5095503;28;20024;-66
2021/07/18 01:57:46;;;;;;;9.98;5.40;;;;;;;;;;5095285;28;20082;-65
2021/07/18 02:00:13;;;;;;;8.27;5.50;;;;;;;;;;5095156;28;20035;-66
2021/07/18 02:02:42;;;;;;;10.15;6.32;;;;;;;;;;5095240;28;20412;-66
2021/07/18 02:05:08;;;;;;;6.75;4.68;;;;;;;;;;5095235;28;20464;-63
2021/07/18 02:07:34;;;;;;;7.47;4.55;;;;;;;;;;5095155;28;20023;-66
2021/07/18 02:10:00;;;;;;;4.30;3.58;;;;;;;;;;5094803;28;20008;-67
2021/07/18 02:12:26;;;;;;;10.73;3.55;;;;;;;;;;5094988;28;20499;-67
2021/07/18 02:14:52;;;;;;;3.20;2.90;;;;;;;;;;5094578;28;20061;-64
2021/07/18 02:17:19;;;;;;;3.28;2.95;;;;;;;;;;5095007;28;20019;-66
2021/07/18 02:19:44;;;;;;;4.35;2.90;;;;;;;;;;5095091;28;20027;-65
2021/07/18 02:22:10;;;;;;;3.08;2.53;;;;;;;;;;5094873;28;20380;-66
2021/07/18 02:24:36;;;;;;;3.67;2.75;;;;;;;;;;5094809;28;20024;-65
2021/07/18 02:27:05;;;;;;;7.43;2.63;;;;;;;;;;5094128;28;20044;-66
2021/07/18 02:29:30;;;;;;;4.37;2.40;;;;;;;;;;5095111;28;20028;-66
2021/07/18 02:31:57;;;;;;;3.25;2.40;;;;;;;;;;5094744;28;20037;-67
2021/07/18 02:34:23;;;;;;;5.90;2.95;;;;;;;;;;5094894;28;20056;-65
2021/07/18 02:36:48;;;;;;;2.97;2.53;;;;;;;;;;5094524;28;20024;-66
2021/07/18 02:39:15;;;;;;;5.38;3.22;;;;;;;;;;5094640;28;20020;-65
2021/07/18 02:41:40;;;;;;;3.47;2.47;;;;;;;;;;5094712;28;20023;-65
2021/07/18 02:44:07;;;;;;;5.50;3.17;;;;;;;;;;5094630;28;20485;-67
2021/07/18 02:46:33;;;;;;;3.78;2.25;;;;;;;;;;5094408;28;20060;-64
2021/07/18 02:48:59;;;;;;;8.40;2.58;;;;;;;;;;5094225;28;20016;-65
2021/07/18 02:51:25;;;;;;;6.80;2.50;;;;;;;;;;5094261;28;20020;-65
2021/07/18 02:53:51;;;;;;;3.55;1.92;;;;;;;;;;5094028;28;20110;-67
2021/07/18 02:56:18;;;;;;;3.22;2.58;;;;;;;;;;5093390;28;20063;-67
2021/07/18 02:58:44;;;;;;;3.72;2.30;;;;;;;;;;5094252;28;20086;-66
2021/07/18 03:01:10;;;;;;;5.50;2.40;;;;;;;;;;5094334;28;20024;-65
2021/07/18 03:03:35;;;;;;;5.50;3.10;;;;;;;;;;5094040;28;20019;-65
2021/07/18 03:06:01;;;;;;;12.27;3.55;;;;;;;;;;5093814;28;20020;-65
2021/07/18 03:08:27;;;;;;;2.25;1.98;;;;;;;;;;5093843;28;20016;-67
2021/07/18 03:10:53;;;;;;;2.83;2.47;;;;;;;;;;5093433;28;20043;-66
2021/07/18 03:13:18;;;;;;;6.10;2.30;;;;;;;;;;5093805;28;20056;-67
2021/07/18 03:15:44;;;;;;;5.22;2.58;;;;;;;;;;5093796;28;20074;-66
2021/07/18 03:18:11;;;;;;;3.78;2.20;;;;;;;;;;5093966;28;20016;-66
2021/07/18 03:20:37;;;;;;;4.13;2.10;;;;;;;;;;5093804;28;20024;-66
2021/07/18 03:23:03;;;;;;;3.25;2.20;;;;;;;;;;5093450;28;20099;-65
2021/07/18 03:25:29;;;;;;;3.72;2.30;;;;;;;;;;5093301;28;20052;-65
2021/07/18 03:27:55;;;;;;;6.60;2.33;;;;;;;;;;5093603;28;20354;-66
2021/07/18 03:30:21;;;;;;;3.88;2.40;;;;;;;;;;5093718;28;20047;-65
2021/07/18 03:32:47;;;;;;;6.47;2.17;;;;;;;;;;5093492;28;20020;-65
2021/07/18 03:35:13;;;;;;;2.38;2.17;;;;;;;;;;5093358;28;20016;-65
2021/07/18 03:37:40;;;;;;;6.50;2.20;;;;;;;;;;5093312;28;20126;-64
2021/07/18 03:40:08;;;;;;;3.88;2.50;;;;;;;;;;5070941;28;20043;-65
2021/07/18 03:42:34;;;;;;;11.05;6.47;;;;;;;;;;5089415;28;20031;-67
2021/07/18 03:45:00;;;;;;;9.73;6.05;;;;;;;;;;5092977;28;20020;-66
2021/07/18 03:47:26;;;;;;;5.90;4.30;;;;;;;;;;5093470;28;20027;-65
2021/07/18 03:49:51;;;;;;;7.70;3.38;;;;;;;;;;5093011;28;20046;-65
2021/07/18 03:52:17;;;;;;;5.28;2.75;;;;;;;;;;5093286;28;20028;-65
2021/07/18 03:54:44;;;;;;;4.38;2.60;;;;;;;;;;5093238;28;20491;-65
2021/07/18 03:57:09;;;;;;;3.65;2.60;;;;;;;;;;5093164;28;20070;-65
2021/07/18 03:59:34;;;;;;;6.18;3.53;;;;;;;;;;5074941;28;20028;-66
2021/07/18 04:02:01;;;;;;;12.65;6.88;;;;;;;;;;5093091;28;20032;-64
2021/07/18 04:04:27;;;;;;;15.77;9.07;;;;;;;;;;5093109;28;20024;-66
2021/07/18 04:06:53;;;;;;;15.15;7.68;;;;;;;;;;5092461;28;20537;-66
2021/07/18 04:09:18;;;;;;;13.00;7.05;;;;;;;;;;5093082;28;20027;-67
2021/07/18 04:11:44;;;;;;;9.52;4.03;;;;;;;;;;5092865;28;20015;-67
2021/07/18 04:14:10;;;;;;;5.18;3.65;;;;;;;;;;5092724;28;20021;-67
2021/07/18 04:16:36;;;;;;;6.05;3.33;;;;;;;;;;5092835;28;20028;-65
2021/07/18 04:19:02;;;;;;;4.18;2.75;;;;;;;;;;5092551;28;20016;-66
2021/07/18 04:21:28;;;;;;;3.50;2.47;;;;;;;;;;5092716;28;20494;-66
2021/07/18 04:23:54;;;;;;;3.58;2.50;;;;;;;;;;5092502;28;20051;-65
2021/07/18 04:26:20;;;;;;;4.75;2.38;;;;;;;;;;5092577;28;20093;-66
2021/07/18 04:28:48;;;;;;;6.05;2.97;;;;;;;;;;5092351;28;20086;-67
2021/07/18 04:31:13;;;;;;;4.28;3.08;;;;;;;;;;5092817;28;20476;-65
2021/07/18 04:33:40;;;;;;;6.28;3.30;;;;;;;;;;5093030;28;20095;-65
2021/07/18 04:36:06;;;;;;;9.38;2.97;;;;;;;;;;5092660;28;20043;-66
2021/07/18 04:38:32;;;;;;;4.28;2.95;;;;;;;;;;5092717;28;20016;-67
2021/07/18 04:40:58;;;;;;;8.15;2.92;;;;;;;;;;5092402;28;20016;-66
2021/07/18 04:43:23;;;;;;;4.93;3.17;;;;;;;;;;5092859;28;20020;-67
2021/07/18 04:45:49;;;;;;;10.60;3.53;;;;;;;;;;5092784;28;20510;-67
2021/07/18 04:48:15;;;;;;;6.55;3.75;;;;;;;;;;5092635;28;20023;-65
2021/07/18 04:50:41;;;;;;;6.90;3.75;;;;;;;;;;5092628;28;20388;-65
2021/07/18 04:53:07;;;;;;;6.28;4.13;;;;;;;;;;5092224;28;20388;-67
2021/07/18 04:55:32;;;;;;;8.80;3.50;;;;;;;;;;5094023;28;20016;-65
2021/07/18 04:57:58;;;;;;;8.48;4.18;;;;;;;;;;5092540;28;20601;-65
2021/07/18 05:00:25;;;;;;;5.20;4.18;;;;;;;;;;5092678;28;20027;-64
2021/07/18 05:02:50;;;;;;;8.93;4.32;;;;;;;;;;5092339;28;20020;-67
2021/07/18 05:05:17;;;;;;;8.63;4.80;;;;;;;;;;5092707;28;20465;-64
2021/07/18 05:07:46;;;;;;;10.95;5.28;;;;;;;;;;5092251;28;20545;-65
2021/07/18 05:10:12;;;;;;;11.43;5.55;;;;;;;;;;5092307;28;20016;-66
2021/07/18 05:12:38;;;;;;;7.93;5.70;;;;;;;;;;5092383;28;20556;-66
2021/07/18 05:15:05;;;;;;;9.38;6.10;;;;;;;;;;5092147;28;20396;-66
2021/07/18 05:17:31;;;;;;;11.90;6.53;;;;;;;;;;5091784;28;20085;-65
2021/07/18 05:19:58;;;;;;;8.32;6.30;;;;;;;;;;5095514;28;20375;-66
2021/07/18 05:22:25;;;;;;;15.90;8.00;;;;;;;;;;5077873;28;20446;-64
2021/07/18 05:24:52;;;;;;;15.32;7.75;;;;;;;;;;5095875;28;20044;-67
2021/07/18 05:27:20;;;;;;;11.52;8.02;;;;;;;;;;5095440;28;20056;-65
2021/07/18 05:29:45;;;;;;;14.98;8.13;;;;;;;;;;5096111;28;20028;-67
2021/07/18 05:32:11;;;;;;;14.43;8.88;;;;;;;;;;5077543;28;20031;-64
2021/07/18 05:34:38;;;;;;;14.85;8.77;;;;;;;;;;5096067;28;20027;-65
2021/07/18 05:37:03;;;;;;;16.73;9.18;;;;;;;;;;5095273;28;20042;-66
2021/07/18 05:39:30;;;;;;;16.30;9.13;;;;;;;;;;5096269;28;20024;-66
2021/07/18 05:41:57;;;;;;;19.73;9.85;;;;;;;;;;5095770;28;20035;-64
2021/07/18 05:44:22;;;;;;;17.55;9.68;;;;;;;;;;5095860;28;20027;-65
2021/07/18 05:46:48;;;;;;;10.88;8.30;;;;;;;;;;5095264;28;20028;-66
2021/07/18 05:49:14;;;;;;;14.90;8.85;;;;;;;;;;5095469;28;20020;-64
2021/07/18 05:51:40;;;;;;;19.30;9.40;;;;;;;;;;5095294;28;20495;-67
2021/07/18 05:54:05;;;;;;;17.23;9.48;;;;;;;;;;5095654;28;20023;-67
2021/07/18 05:56:32;;;;;;;15.88;10.55;;;;;;;;;;5095482;28;20012;-66
2021/07/18 05:58:57;;;;;;;13.73;10.43;;;;;;;;;;5095109;28;20055;-65
2021/07/18 06:01:23;;;;;;;18.65;11.02;;;;;;;;;;5095219;28;20126;-66
2021/07/18 06:03:49;;;;;;;21.95;12.10;;;;;;;;;;5095357;28;20012;-67
2021/07/18 06:06:15;;;;;;;19.98;11.35;;;;;;;;;;5095214;28;20107;-65
2021/07/18 06:08:41;;;;;;;16.15;10.82;;;;;;;;;;5095134;28;20477;-65
2021/07/18 06:11:07;;;;;;;19.17;11.10;;;;;;;;;;5095061;28;20436;-66
2021/07/18 06:13:33;;;;;;;17.13;11.25;;;;;;;;;;5095090;28;20008;-65
2021/07/18 06:15:59;;;;;;;20.88;11.57;;;;;;;;;;5095119;28;20086;-66
2021/07/18 06:18:25;;;;;;;17.85;11.40;;;;;;;;;;5095027;28;20043;-66
2021/07/18 06:20:51;;;;;;;24.88;12.68;;;;;;;;;;5094666;28;20039;-66
2021/07/18 06:23:16;;;;;;;19.70;11.55;;;;;;;;;;5095146;28;20468;-65
2021/07/18 06:25:42;;;;;;;21.35;11.90;;;;;;;;;;5094588;28;20040;-67
2021/07/18 06:28:08;;;;;;;19.20;12.70;;;;;;;;;;5094874;28;20027;-65
2021/07/18 06:30:33;;;;;;;21.48;12.63;;;;;;;;;;5094574;28;20481;-65
2021/07/18 06:32:59;;;;;;;32.20;13.80;;;;;;;;;;5094370;28;20019;-67
2021/07/18 06:35:24;;;;;;;24.02;13.38;;;;;;;;;;5094518;28;20095;-64
2021/07/18 06:37:50;;;;;;;23.58;12.05;;;;;;;;;;5094603;28;20134;-65
2021/07/18 06:40:16;;;;;;;20.73;10.05;;;;;;;;;;5094564;28;20024;-66
2021/07/18 06:42:42;;;;;;;16.23;10.45;;;;;;;;;;5094687;28;20069;-66
2021/07/18 06:45:09;;;;;;;16.95;10.90;;;;;;;;;;5094121;28;20044;-66
2021/07/18 06:47:34;;;;;;;20.77;11.35;;;;;;;;;;5094513;28;20138;-66
2021/07/18 06:50:00;;;;;;;23.10;12.50;;;;;;;;;;5094004;28;20024;-64
2021/07/18 06:52:26;;;;;;;19.27;11.27;;;;;;;;;;5094311;28;20464;-64
2021/07/18 06:54:53;;;;;;;16.33;10.90;;;;;;;;;;5093876;28;20020;-65
2021/07/18 06:57:19;;;;;;;21.70;12.55;;;;;;;;;;5094257;28;20045;-65
2021/07/18 06:59:46;;;;;;;14.40;10.82;;;;;;;;;;5094254;28;20027;-67
2021/07/18 07:02:11;;;;;;;19.45;11.40;;;;;;;;;;5094138;28;20535;-66
2021/07/18 07:04:37;;;;;;;19.85;12.70;;;;;;;;;;5093995;28;20051;-66
2021/07/18 07:07:03;;;;;;;14.88;9.88;;;;;;;;;;5093537;28;20115;-64
2021/07/18 07:09:29;;;;;;;15.52;9.32;;;;;;;;;;5093931;28;20023;-67
2021/07/18 07:11:54;;;;;;;21.50;10.98;;;;;;;;;;5094555;28;20012;-62
2021/07/18 07:14:20;;;;;;;14.20;9.70;;;;;;;;;;5094079;28;20026;-65
2021/07/18 07:16:46;;;;;;;15.02;8.70;;;;;;;;;;5093490;28;20028;-66
2021/07/18 07:19:11;;;;;;;14.57;9.23;;;;;;;;;;5093623;28;20487;-65
2021/07/18 07:21:37;;;;;;;11.57;8.65;;;;;;;;;;5093680;28;20016;-66
2021/07/18 07:24:03;;;;;;;11.68;8.32;;;;;;;;;;5093659;28;20012;-66
2021/07/18 07:26:30;;;;;;;13.20;9.98;;;;;;;;;;5093449;28;20051;-66
2021/07/18 07:28:56;;;;;;;18.58;10.68;;;;;;;;;;5093344;28;20066;-65
2021/07/18 07:31:23;;;;;;;18.70;9.50;;;;;;;;;;5093604;28;20107;-66
2021/07/18 07:33:48;;;;;;;17.88;9.32;;;;;;;;;;5093539;28;20050;-66
2021/07/18 07:36:18;;;;;;;12.70;8.93;;;;;;;;;;5075105;28;20028;-65
2021/07/18 07:38:47;;;;;;;11.10;8.10;;;;;;;;;;5093342;28;20020;-66
2021/07/18 07:41:14;;;;;;;13.98;8.82;;;;;;;;;;5093084;28;20492;-66
2021/07/18 07:43:40;;;;;;;14.10;9.13;;;;;;;;;;5093401;28;20008;-63
2021/07/18 07:46:07;;;;;;;15.90;9.95;;;;;;;;;;5093281;28;20020;-65
2021/07/18 07:48:32;;;;;;;14.13;9.85;;;;;;;;;;5093159;28;20108;-66
2021/07/18 07:50:58;;;;;;;15.48;10.18;;;;;;;;;;5092902;28;20074;-66
2021/07/18 07:53:24;;;;;;;15.32;11.70;;;;;;;;;;5093260;28;20024;-65
2021/07/18 07:55:51;;;;;;;16.30;11.90;;;;;;;;;;5093349;28;20031;-65
2021/07/18 07:58:16;;;;;;;17.80;13.20;;;;;;;;;;5093061;28;20078;-66
2021/07/18 08:00:42;;;;;;;14.43;10.90;;;;;;;;;;5093145;28;20028;-66
2021/07/18 08:03:09;;;;;;;16.08;11.35;;;;;;;;;;5092627;28;20025;-66
2021/07/18 08:05:34;;;;;;;13.13;9.20;;;;;;;;;;5074686;28;20503;-67
2021/07/18 08:08:00;;;;;;;12.10;9.40;;;;;;;;;;5093178;28;20020;-66
2021/07/18 08:10:27;;;;;;;16.08;9.40;;;;;;;;;;5093175;28;20012;-66
2021/07/18 08:12:53;;;;;;;12.82;8.38;;;;;;;;;;5074592;28;20026;-64
2021/07/18 08:15:20;;;;;;;10.52;8.20;;;;;;;;;;5092920;28;20016;-66
2021/07/18 08:17:46;;;;;;;18.08;9.13;;;;;;;;;;5092727;28;20468;-66
2021/07/18 08:20:14;;;;;;;11.88;7.82;;;;;;;;;;5092829;28;20091;-66
2021/07/18 08:22:40;;;;;;;11.82;8.13;;;;;;;;;;5093030;28;20023;-66
2021/07/18 08:25:07;;;;;;;13.20;8.23;;;;;;;;;;5074152;28;20028;-66
2021/07/18 08:27:34;;;;;;;12.25;8.30;;;;;;;;;;5092952;28;20098;-66
2021/07/18 08:30:01;;;;;;;11.95;8.85;;;;;;;;;;5092628;28;20023;-68
2021/07/18 08:32:27;;;;;;;13.00;9.48;;;;;;;;;;5092852;28;20077;-67
2021/07/18 08:34:53;;;;;;;12.93;9.10;;;;;;;;;;5092438;28;20020;-67
2021/07/18 08:37:18;;;;;;;12.57;8.88;;;;;;;;;;5093094;28;20016;-66
2021/07/18 08:39:44;;;;;;;13.10;9.85;;;;;;;;;;5092699;28;20085;-64
2021/07/18 08:42:13;;;;;;;17.85;9.77;;;;;;;;;;5092514;28;20047;-67
2021/07/18 08:44:39;;;;;;;20.02;9.80;;;;;;;;;;5092583;28;20134;-67
2021/07/18 08:47:05;;;;;;;12.95;10.30;;;;;;;;;;5092219;28;20032;-65
2021/07/18 08:49:31;;;;;;;14.60;9.68;;;;;;;;;;5092478;28;20563;-66
2021/07/18 08:51:57;;;;;;;12.32;9.30;;;;;;;;;;5092420;28;20095;-65
2021/07/18 08:54:25;;;;;;;13.07;9.65;;;;;;;;;;5096811;28;20013;-66
2021/07/18 08:56:52;;;;;;;16.27;9.70;;;;;;;;;;5096614;28;20032;-64
2021/07/18 08:59:18;;;;;;;12.45;9.65;;;;;;;;;;5096312;28;20012;-65
2021/07/18 09:01:44;;;;;;;14.80;9.65;;;;;;;;;;5096416;28;20028;-67
2021/07/18 09:04:10;;;;;;;17.25;9.95;;;;;;;;;;5096348;28;20488;-66
2021/07/18 09:06:40;;;;;;;14.57;9.27;;;;;;;;;;5096466;28;20422;-65
2021/07/18 09:09:08;;;;;;;12.27;9.35;;;;;;;;;;5096193;28;20024;-66
2021/07/18 09:11:34;;;;;;;14.13;9.25;;;;;;;;;;5096336;28;20112;-66
2021/07/18 09:14:00;;;;;;;13.15;9.35;;;;;;;;;;5096193;28;20023;-66
2021/07/18 09:16:27;;;;;;;14.57;9.38;;;;;;;;;;5095901;28;20027;-65
2021/07/18 09:18:53;;;;;;;15.25;9.20;;;;;;;;;;5095984;28;20020;-64
2021/07/18 09:21:19;;;;;;;16.73;9.20;;;;;;;;;;5095913;28;20028;-65
2021/07/18 09:23:45;;;;;;;11.30;8.38;;;;;;;;;;5096462;28;20077;-65
2021/07/18 09:26:22;;;;;;;16.73;9.00;;;;;;;;;;5095755;28;20081;-65
2021/07/18 09:28:47;;;;;;;10.27;8.55;;;;;;;;;;5097310;28;20115;-65
2021/07/18 09:31:33;;;;;;;13.35;8.63;;;;;;;;;;5095864;28;20427;-66
2021/07/18 09:34:12;;;;;;;11.75;8.50;;;;;;;;;;5095958;28;20020;-66
2021/07/18 09:36:39;;;;;;;12.65;8.77;;;;;;;;;;5073255;28;20036;-66
2021/07/18 09:39:09;;;;;;;12.10;8.40;;;;;;;;;;5090718;28;20035;-66
2021/07/18 09:41:36;;;;;;;11.73;7.95;;;;;;;;;;5095767;28;20103;-66
2021/07/18 09:44:02;;;;;;;9.10;7.95;;;;;;;;;;5095614;28;20016;-65
2021/07/18 09:46:34;;;;;;;10.50;8.13;;;;;;;;;;5095579;28;20032;-66
2021/07/18 09:49:03;;;;;;;16.05;8.57;;;;;;;;;;5095476;28;20455;-68
2021/07/18 09:51:30;;;;;;;10.52;7.72;;;;;;;;;;5095672;28;20042;-67
2021/07/18 09:54:10;;;;;;;14.05;8.30;;;;;;;;;;5095357;28;20047;-66
2021/07/18 09:56:35;;;;;;;9.73;7.90;;;;;;;;;;5095495;28;20050;-66
2021/07/18 09:59:02;;;;;;;13.50;8.40;;;;;;;;;;5095006;28;20492;-67
2021/07/18 10:01:28;;;;;;;14.65;7.50;;;;;;;;;;5095265;28;20111;-65
2021/07/18 10:03:55;;;;;;;11.40;8.05;;;;;;;;;;5094743;28;20028;-66
2021/07/18 10:06:24;;;;;;;12.23;7.75;;;;;;;;;;5094889;28;20031;-65
2021/07/18 10:08:51;;;;;;;11.52;6.82;;;;;;;;;;5076966;28;20020;-66
2021/07/18 10:11:17;;;;;;;8.90;6.90;;;;;;;;;;5095219;28;20024;-64
2021/07/18 10:13:45;;;;;;;12.18;7.03;;;;;;;;;;5095221;28;20388;-67
2021/07/18 10:16:11;;;;;;;13.13;8.25;;;;;;;;;;5094613;28;20077;-67
2021/07/18 10:18:41;;;;;;;10.50;7.45;;;;;;;;;;5094989;28;20104;-65
2021/07/18 10:21:07;;;;;;;10.98;7.25;;;;;;;;;;5076445;28;20027;-66
2021/07/18 10:23:35;;;;;;;10.38;7.07;;;;;;;;;;5094957;28;20073;-66
2021/07/18 10:26:01;;;;;;;9.88;6.95;;;;;;;;;;5094292;28;20139;-64
2021/07/18 10:28:27;;;;;;;13.55;7.07;;;;;;;;;;5095015;28;20031;-66
2021/07/18 10:30:56;;;;;;;9.75;6.80;;;;;;;;;;5094445;28;20106;-66
2021/07/18 10:33:22;;;;;;;7.55;6.47;;;;;;;;;;5072363;28;20013;-67
2021/07/18 10:35:50;;;;;;;7.45;5.80;;;;;;;;;;5089291;28;20089;-64
2021/07/18 10:38:20;;;;;;;10.38;6.13;;;;;;;;;;5094342;28;20016;-66
2021/07/18 10:40:50;;;;;;;8.63;5.63;;;;;;;;;;5094526;28;20024;-67
2021/07/18 10:43:35;;;;;;;8.60;5.55;;;;;;;;;;5094425;28;20069;-66
2021/07/18 10:46:00;;;;;;;6.57;5.50;;;;;;;;;;5094409;28;20024;-67
2021/07/18 10:48:44;;;;;;;8.27;5.60;;;;;;;;;;5094161;28;20026;-66
2021/07/18 10:51:11;;;;;;;9.38;5.90;;;;;;;;;;5094362;28;20024;-67
2021/07/18 10:53:38;;;;;;;8.90;5.18;;;;;;;;;;5076336;28;20090;-67
2021/07/18 10:56:04;;;;;;;9.35;5.75;;;;;;;;;;5094390;28;20020;-66
2021/07/18 10:58:42;;;;;;;6.53;5.07;;;;;;;;;;5094200;28;20016;-68
2021/07/18 11:01:16;;;;;;;13.07;5.85;;;;;;;;;;5093928;28;20031;-68
2021/07/18 11:03:42;;;;;;;7.03;5.20;;;;;;;;;;5094104;28;20022;-67
2021/07/18 11:06:27;;;;;;;7.40;5.68;;;;;;;;;;5093911;28;20115;-66
2021/07/18 11:09:13;;;;;;;8.23;5.65;;;;;;;;;;5093705;28;20032;-64
2021/07/18 11:11:45;;;;;;;9.48;5.78;;;;;;;;;;5093744;28;20031;-65
2021/07/18 11:14:31;;;;;;;8.02;5.38;;;;;;;;;;5093507;28;20024;-66
2021/07/18 11:16:58;;;;;;;9.48;6.00;;;;;;;;;;5092636;28;20020;-67
2021/07/18 11:19:42;;;;;;;14.35;5.95;;;;;;;;;;5093639;28;20012;-67
2021/07/18 11:22:09;;;;;;;8.93;5.20;;;;;;;;;;5093764;28;20026;-67
2021/07/18 11:24:49;;;;;;;7.85;5.70;;;;;;;;;;5093708;28;20060;-67
2021/07/18 11:27:32;;;;;;;6.40;4.88;;;;;;;;;;5093118;28;20043;-66
2021/07/18 11:29:59;;;;;;;6.43;4.80;;;;;;;;;;5093777;28;20024;-67
2021/07/18 11:32:32;;;;;;;6.80;5.05;;;;;;;;;;5093243;28;20016;-67
2021/07/18 11:34:59;;;;;;;12.60;5.90;;;;;;;;;;5091969;28;20039;-67
2021/07/18 11:37:28;;;;;;;6.15;5.10;;;;;;;;;;5075425;28;20110;-68
2021/07/18 11:39:59;;;;;;;6.60;5.40;;;;;;;;;;5093218;28;20031;-67
2021/07/18 11:42:25;;;;;;;7.25;5.05;;;;;;;;;;5093893;28;20111;-67
2021/07/18 11:44:51;;;;;;;11.10;5.45;;;;;;;;;;5095721;28;20024;-67
2021/07/18 11:47:18;;;;;;;7.70;4.78;;;;;;;;;;5093039;28;20031;-66
2021/07/18 11:49:48;;;;;;;12.63;4.83;;;;;;;;;;5093511;28;20024;-68
2021/07/18 11:52:15;;;;;;;6.13;5.25;;;;;;;;;;5093031;28;20103;-65
2021/07/18 11:54:42;;;;;;;7.57;5.07;;;;;;;;;;5093234;28;20419;-66
2021/07/18 11:57:10;;;;;;;5.82;4.50;;;;;;;;;;5092730;28;20061;-67
2021/07/18 11:59:38;;;;;;;11.45;4.70;;;;;;;;;;5093456;28;20024;-66
2021/07/18 12:02:04;;;;;;;9.07;4.82;;;;;;;;;;5093006;28;20020;-66
2021/07/18 12:04:30;;;;;;;7.88;5.00;;;;;;;;;;5092952;28;20050;-68
2021/07/18 12:06:57;;;;;;;5.75;4.88;;;;;;;;;;5092657;28;20028;-66
2021/07/18 12:09:24;;;;;;;7.07;5.30;;;;;;;;;;5074769;28;20021;-67
2021/07/18 12:11:54;;;;;;;8.70;5.10;;;;;;;;;;5070601;28;20028;-67
2021/07/18 12:14:20;;;;;;;8.00;5.15;;;;;;;;;;5091975;28;20027;-68
2021/07/18 12:16:48;;;;;;;7.50;4.80;;;;;;;;;;5092854;28;20016;-66
2021/07/18 12:19:14;;;;;;;5.88;4.63;;;;;;;;;;5092833;28;20024;-67
2021/07/18 12:21:42;;;;;;;10.93;5.28;;;;;;;;;;5092766;28;20020;-67
2021/07/18 12:24:26;;;;;;;6.78;5.05;;;;;;;;;;5092696;28;20020;-65
2021/07/18 12:27:00;;;;;;;7.97;5.13;;;;;;;;;;5091853;28;20048;-67
2021/07/18 12:29:26;;;;;;;15.52;5.22;;;;;;;;;;5092840;28;20095;-66
2021/07/18 12:31:53;;;;;;;5.32;4.45;;;;;;;;;;5092782;28;20047;-67
2021/07/18 12:34:24;;;;;;;6.97;5.03;;;;;;;;;;5093039;28;20115;-67
2021/07/18 12:36:51;;;;;;;9.10;5.28;;;;;;;;;;5092412;28;20046;-66
2021/07/18 12:39:17;;;;;;;10.73;5.50;;;;;;;;;;5092376;28;20016;-69
2021/07/18 12:41:44;;;;;;;13.38;6.43;;;;;;;;;;5092835;28;20020;-67
2021/07/18 12:44:09;;;;;;;8.73;5.15;;;;;;;;;;5092534;28;20020;-67
2021/07/18 12:46:35;;;;;;;9.70;5.90;;;;;;;;;;5092599;28;20020;-68
2021/07/18 12:49:16;;;;;;;10.38;5.47;;;;;;;;;;5092254;28;20421;-68
2021/07/18 12:51:42;;;;;;;10.88;6.22;;;;;;;;;;5092398;28;20024;-67
2021/07/18 12:54:08;;;;;;;8.75;5.68;;;;;;;;;;5092375;28;20540;-67
2021/07/18 12:56:37;;;;;;;12.98;6.03;;;;;;;;;;5092670;28;20369;-66
2021/07/18 12:59:03;;;;;;;;;;;;;;;;;;5092899;28;20009;-67
2021/07/18 13:01:29;;;;;;;11.13;5.95;;;;;;;;;;5092445;28;19910;-66
2021/07/18 13:04:03;;;;;;;10.18;6.35;;;;;;;;;;5074409;28;20016;-68
2021/07/18 13:06:38;;;;;;;7.60;5.78;;;;;;;;;;5092084;28;20020;-69
2021/07/18 13:09:03;;;;;;;10.32;5.85;;;;;;;;;;5092015;28;20024;-69
2021/07/18 13:11:34;;;;;;;14.30;6.70;;;;;;;;;;5092183;28;20016;-67
2021/07/18 13:14:18;;;;;;;11.27;5.68;;;;;;;;;;5092341;28;20013;-67
2021/07/18 13:16:44;;;;;;;9.55;6.10;;;;;;;;;;5091874;28;20532;-68
2021/07/18 13:19:10;;;;;;;10.13;6.85;;;;;;;;;;5091902;28;20047;-68
2021/07/18 13:21:36;;;;;;;8.73;6.38;;;;;;;;;;5092238;28;20107;-68
2021/07/18 13:24:03;;;;;;;14.45;6.22;;;;;;;;;;5092174;28;20016;-66
2021/07/18 13:26:37;;;;;;;10.43;6.25;;;;;;;;;;5092039;28;20055;-67
2021/07/18 13:29:12;;;;;;;12.80;6.10;;;;;;;;;;5092323;28;20020;-67
2021/07/18 13:31:38;;;;;;;13.32;6.05;;;;;;;;;;5092110;28;20087;-67
2021/07/18 13:34:04;;;;;;;9.52;5.93;;;;;;;;;;5092303;28;20452;-67
2021/07/18 13:36:29;;;;;;;9.35;5.57;;;;;;;;;;5092142;28;20058;-66
2021/07/18 13:38:54;;;;;;;12.75;6.10;;;;;;;;;;5092024;28;20427;-67
2021/07/18 13:41:22;;;;;;;10.43;5.72;;;;;;;;;;5095366;28;20429;-68
2021/07/18 13:43:48;;;;;;;9.80;6.10;;;;;;;;;;5095799;28;20111;-67
2021/07/18 13:46:14;;;;;;;7.43;5.97;;;;;;;;;;5095323;28;20118;-68
2021/07/18 13:48:39;;;;;;;9.60;6.25;;;;;;;;;;5095504;28;20099;-68
2021/07/18 13:51:09;;;;;;;7.13;5.53;;;;;;;;;;5095304;28;20066;-66
2021/07/18 13:53:35;;;;;;;6.72;4.80;;;;;;;;;;5095715;28;20032;-66
2021/07/18 13:56:02;;;;;;;8.65;5.10;;;;;;;;;;5095266;28;20016;-66
2021/07/18 13:58:28;;;;;;;9.05;5.35;;;;;;;;;;5095807;28;20056;-67
2021/07/18 14:00:54;;;;;;;6.55;5.13;;;;;;;;;;5095309;28;20008;-65
2021/07/18 14:03:21;;;;;;;8.20;4.72;;;;;;;;;;5095672;28;20016;-66
2021/07/18 14:05:46;;;;;;;7.45;4.82;;;;;;;;;;5095355;28;20071;-67
2021/07/18 14:08:12;;;;;;;7.15;4.55;;;;;;;;;;5095187;28;20094;-68
2021/07/18 14:10:41;;;;;;;8.98;5.10;;;;;;;;;;5095105;28;20018;-66
2021/07/18 14:13:07;;;;;;;6.75;4.82;;;;;;;;;;5094793;28;20020;-65
2021/07/18 14:15:32;;;;;;;8.93;4.63;;;;;;;;;;5094867;28;20024;-68
2021/07/18 14:17:58;;;;;;;5.70;4.47;;;;;;;;;;5094830;28;20016;-64
2021/07/18 14:20:25;;;;;;;8.68;5.00;;;;;;;;;;5094532;28;20069;-66
2021/07/18 14:22:51;;;;;;;7.38;4.60;;;;;;;;;;5094792;28;20017;-67
2021/07/18 14:25:20;;;;;;;7.90;4.72;;;;;;;;;;5094470;28;20325;-66
2021/07/18 14:27:47;;;;;;;5.22;4.18;;;;;;;;;;5094827;28;20384;-66
2021/07/18 14:30:14;;;;;;;5.53;4.43;;;;;;;;;;5094661;28;20028;-68
2021/07/18 14:32:41;;;;;;;14.32;4.25;;;;;;;;;;5094623;28;20021;-66